Time;durP1;ratioP1;P1;durP2;ratioP2;P2;SDS_P1;SDS_P2;PMS_P1;PMS_P2;Temp;Humidity;BMP_temperature;BMP_pressure;BME280_temperature;BME280_humidity;BME280_pressure;Samples;Min_cycle;Max_cycle;Signal;HPM_P1;HPM_P2
2021/09/06 00:01:37;;;;;;;10.00;8.18;;;21.00;99.90;;;;;;4994753;28;20499;-89
2021/09/06 00:04:03;;;;;;;10.43;7.80;;;21.20;99.90;;;;;;4999070;28;20031;-89
2021/09/06 00:06:29;;;;;;;8.38;7.50;;;21.10;99.90;;;;;;4998452;28;20045;-89
2021/09/06 00:08:55;;;;;;;8.90;7.43;;;21.00;99.90;;;;;;4998689;28;20026;-89
2021/09/06 00:11:21;;;;;;;8.60;7.80;;;21.00;99.90;;;;;;4998363;28;20955;-89
2021/09/06 00:13:49;;;;;;;8.52;7.72;;;21.00;99.90;;;;;;4995945;28;20084;-88
2021/09/06 00:16:15;;;;;;;8.15;7.45;;;20.90;99.90;;;;;;4996207;28;20026;-89
2021/09/06 00:18:40;;;;;;;11.13;8.13;;;20.80;99.90;;;;;;4981943;28;20117;-89
2021/09/06 00:21:06;;;;;;;8.27;7.47;;;20.80;99.90;;;;;;4998055;28;20050;-88
2021/09/06 00:23:33;;;;;;;9.20;7.50;;;20.90;99.90;;;;;;4998149;28;20027;-89
2021/09/06 00:25:59;;;;;;;8.10;7.40;;;21.00;99.90;;;;;;4996955;28;20061;-88
2021/09/06 00:28:25;;;;;;;8.07;7.10;;;21.00;99.90;;;;;;4976986;28;20041;-89
2021/09/06 00:30:51;;;;;;;7.90;7.30;;;20.90;99.90;;;;;;4981213;28;20029;-88
2021/09/06 00:33:18;;;;;;;8.25;7.35;;;20.80;99.90;;;;;;4997940;28;20492;-88
2021/09/06 00:35:46;;;;;;;7.97;7.18;;;20.90;99.90;;;;;;4980535;28;20037;-88
2021/09/06 00:38:11;;;;;;;8.98;7.28;;;20.90;99.90;;;;;;4997797;28;20033;-88
2021/09/06 00:40:37;;;;;;;8.60;7.30;;;20.70;99.90;;;;;;4994039;28;20030;-87
2021/09/06 00:43:03;;;;;;;7.93;7.22;;;20.60;99.90;;;;;;4991634;28;20037;-89
2021/09/06 00:45:29;;;;;;;7.95;7.18;;;20.60;99.90;;;;;;4980277;28;20042;-88
2021/09/06 00:47:55;;;;;;;7.43;6.70;;;20.50;99.90;;;;;;4997631;28;20022;-88
2021/09/06 00:50:21;;;;;;;7.60;6.90;;;20.50;99.90;;;;;;4998222;28;20061;-88
2021/09/06 00:52:48;;;;;;;8.38;7.20;;;20.50;99.90;;;;;;4994728;28;20097;-87
2021/09/06 00:55:16;;;;;;;7.60;6.85;;;20.40;99.90;;;;;;4995931;28;20038;-89
2021/09/06 00:57:41;;;;;;;8.02;7.22;;;20.50;99.90;;;;;;4997940;28;20097;-89
2021/09/06 01:00:10;;;;;;;8.15;7.22;;;20.50;99.90;;;;;;4979963;28;20029;-88
2021/09/06 01:02:36;;;;;;;7.38;6.75;;;20.40;99.90;;;;;;4997484;28;20064;-89
2021/09/06 01:05:03;;;;;;;8.00;7.13;;;20.30;99.90;;;;;;4996517;28;20479;-88
2021/09/06 01:07:28;;;;;;;7.82;7.10;;;20.20;99.90;;;;;;4993666;28;20030;-89
2021/09/06 01:09:54;;;;;;;8.50;7.53;;;20.20;99.90;;;;;;4980463;28;20030;-89
2021/09/06 01:12:20;;;;;;;7.57;6.88;;;20.30;99.90;;;;;;4980036;28;20442;-89
2021/09/06 01:14:45;;;;;;;8.23;7.53;;;20.20;99.90;;;;;;4996806;28;20042;-89
2021/09/06 01:17:11;;;;;;;8.30;7.60;;;20.10;99.90;;;;;;4979561;28;20022;-88
2021/09/06 01:19:38;;;;;;;8.20;7.40;;;20.30;99.90;;;;;;4975492;28;20065;-89
2021/09/06 01:22:06;;;;;;;8.65;7.85;;;20.30;99.90;;;;;;4979887;28;20033;-88
2021/09/06 01:24:33;;;;;;;8.60;7.70;;;20.30;99.90;;;;;;4997165;28;20042;-88
2021/09/06 01:26:59;;;;;;;8.48;7.72;;;20.20;99.90;;;;;;4996695;28;20109;-88
2021/09/06 01:29:25;;;;;;;7.80;7.07;;;20.10;99.90;;;;;;4979787;28;20467;-88
2021/09/06 01:31:50;;;;;;;7.97;7.25;;;20.10;99.90;;;;;;4995026;28;20030;-88
2021/09/06 01:34:16;;;;;;;9.48;7.35;;;20.10;99.90;;;;;;4976779;28;20483;-88
2021/09/06 01:36:42;;;;;;;8.32;7.53;;;20.00;99.90;;;;;;4997893;28;20030;-88
2021/09/06 01:39:07;;;;;;;7.88;7.10;;;20.10;99.90;;;;;;4979218;28;20402;-88
2021/09/06 01:41:34;;;;;;;8.05;7.13;;;20.00;99.90;;;;;;4996267;28;20038;-89
2021/09/06 01:43:59;;;;;;;8.30;7.45;;;20.00;99.90;;;;;;4996379;28;20053;-88
2021/09/06 01:46:35;;;;;;;7.55;6.72;;;19.90;99.90;;;;;;4993678;28;20491;-88
2021/09/06 01:49:01;;;;;;;7.80;7.03;;;19.90;99.90;;;;;;5004142;28;20034;-88
2021/09/06 01:51:27;;;;;;;7.40;6.70;;;19.80;99.90;;;;;;4979412;28;20038;-88
2021/09/06 01:53:54;;;;;;;7.85;7.15;;;19.90;99.90;;;;;;4979015;28;20392;-88
2021/09/06 01:56:20;;;;;;;8.20;7.00;;;19.80;99.90;;;;;;4978917;28;20446;-88
2021/09/06 01:58:47;;;;;;;7.95;7.25;;;19.70;99.90;;;;;;4993831;28;20031;-88
2021/09/06 02:01:13;;;;;;;7.88;6.80;;;19.80;99.90;;;;;;4977392;28;20026;-88
2021/09/06 02:03:39;;;;;;;8.60;7.40;;;19.80;99.90;;;;;;4997103;28;20022;-88
2021/09/06 02:06:04;;;;;;;7.93;7.10;;;19.80;99.90;;;;;;4996178;28;20080;-88
2021/09/06 02:08:30;;;;;;;8.32;7.57;;;19.70;99.90;;;;;;4996317;28;20026;-88
2021/09/06 02:10:56;;;;;;;7.80;7.00;;;19.50;99.90;;;;;;4995302;28;20038;-89
2021/09/06 02:13:21;;;;;;;8.10;7.20;;;19.50;99.90;;;;;;4993254;28;20384;-88
2021/09/06 02:15:47;;;;;;;8.55;7.47;;;19.50;99.90;;;;;;5006329;28;20049;-88
2021/09/06 02:18:13;;;;;;;8.25;7.45;;;19.50;99.90;;;;;;4998439;28;20491;-89
2021/09/06 02:20:40;;;;;;;7.95;7.25;;;19.50;99.90;;;;;;4978853;28;20022;-88
2021/09/06 02:23:06;;;;;;;7.70;7.00;;;19.60;99.90;;;;;;4996466;28;20022;-88
2021/09/06 02:25:32;;;;;;;8.02;7.32;;;19.50;99.90;;;;;;4976705;28;20061;-88
2021/09/06 02:27:58;;;;;;;11.00;7.80;;;19.40;99.90;;;;;;4996895;28;20060;-88
2021/09/06 02:30:23;;;;;;;8.05;7.25;;;19.40;99.90;;;;;;4978616;28;20214;-87
2021/09/06 02:32:49;;;;;;;8.10;7.30;;;19.40;99.90;;;;;;4996539;28;20022;-88
2021/09/06 02:35:15;;;;;;;8.63;7.47;;;19.30;99.90;;;;;;4996308;28;20034;-89
2021/09/06 02:37:41;;;;;;;8.27;7.47;;;19.20;99.90;;;;;;4993056;28;20034;-88
2021/09/06 02:40:07;;;;;;;7.57;6.88;;;19.10;99.90;;;;;;4978162;28;20341;-88
2021/09/06 02:42:33;;;;;;;9.05;7.25;;;19.10;99.90;;;;;;4996400;28;20506;-88
2021/09/06 02:44:59;;;;;;;8.65;7.18;;;19.20;99.90;;;;;;4998636;28;20085;-88
2021/09/06 02:47:24;;;;;;;8.15;7.38;;;19.10;99.90;;;;;;5004926;28;20022;-88
2021/09/06 02:49:50;;;;;;;8.45;7.63;;;19.20;99.90;;;;;;4994251;28;20423;-88
2021/09/06 02:52:16;;;;;;;8.93;8.02;;;19.10;99.90;;;;;;4996982;28;20033;-88
2021/09/06 02:54:41;;;;;;;8.23;7.53;;;19.20;99.90;;;;;;4982350;28;20082;-88
2021/09/06 02:57:07;;;;;;;8.98;7.82;;;19.20;99.90;;;;;;4999804;28;20431;-88
2021/09/06 02:59:32;;;;;;;8.30;7.50;;;19.10;99.90;;;;;;4999483;28;20499;-88
2021/09/06 03:01:58;;;;;;;9.00;7.75;;;19.10;99.90;;;;;;4998608;28;20108;-88
2021/09/06 03:04:24;;;;;;;10.75;8.05;;;19.10;99.90;;;;;;4996445;28;20509;-88
2021/09/06 03:06:49;;;;;;;9.50;8.35;;;19.10;99.90;;;;;;5000360;28;20406;-88
2021/09/06 03:09:15;;;;;;;8.85;8.05;;;19.00;99.90;;;;;;4981990;28;20035;-88
2021/09/06 03:11:42;;;;;;;8.77;7.97;;;19.00;99.90;;;;;;4999667;28;20030;-88
2021/09/06 03:14:07;;;;;;;8.68;7.68;;;18.90;99.90;;;;;;4981899;28;20022;-88
2021/09/06 03:16:33;;;;;;;8.85;7.60;;;18.90;99.90;;;;;;4995258;28;20026;-88
2021/09/06 03:18:58;;;;;;;8.45;7.70;;;18.90;99.90;;;;;;5000259;28;20030;-88
2021/09/06 03:21:24;;;;;;;9.07;8.00;;;19.00;99.90;;;;;;4998791;28;20038;-87
2021/09/06 03:23:51;;;;;;;8.18;7.40;;;18.90;99.90;;;;;;4999430;28;20454;-88
2021/09/06 03:26:16;;;;;;;8.25;7.45;;;18.90;99.90;;;;;;4981668;28;20122;-89
2021/09/06 03:28:42;;;;;;;8.15;7.45;;;18.90;99.90;;;;;;4978531;28;20173;-88
2021/09/06 03:31:09;;;;;;;8.65;7.88;;;18.90;99.90;;;;;;4980950;28;20030;-88
2021/09/06 03:33:34;;;;;;;8.27;7.47;;;18.90;99.90;;;;;;5011328;28;20030;-88
2021/09/06 03:36:00;;;;;;;8.45;7.75;;;18.80;99.90;;;;;;5002245;28;20072;-88
2021/09/06 03:38:25;;;;;;;7.97;7.28;;;18.70;99.90;;;;;;4999249;28;20082;-88
2021/09/06 03:40:51;;;;;;;9.68;7.88;;;18.70;99.90;;;;;;4979753;28;20022;-88
2021/09/06 03:43:17;;;;;;;8.15;7.40;;;18.70;99.90;;;;;;4978651;28;20051;-87
2021/09/06 03:45:42;;;;;;;8.27;7.50;;;18.70;99.90;;;;;;4982108;28;20419;-88
2021/09/06 03:48:08;;;;;;;7.82;7.07;;;18.60;99.90;;;;;;4981329;28;20022;-88
2021/09/06 03:50:34;;;;;;;8.13;7.43;;;18.60;99.90;;;;;;4998652;28;20026;-88
2021/09/06 03:53:00;;;;;;;9.48;7.38;;;18.60;99.90;;;;;;4980196;28;20050;-88
2021/09/06 03:55:27;;;;;;;7.72;6.97;;;18.50;99.90;;;;;;4977435;28;20193;-88
2021/09/06 03:57:53;;;;;;;8.18;7.38;;;18.60;99.90;;;;;;4999007;28;20454;-88
2021/09/06 04:00:18;;;;;;;10.23;7.32;;;18.60;99.90;;;;;;5008777;28;20026;-88
2021/09/06 04:02:44;;;;;;;7.75;7.05;;;18.60;99.90;;;;;;5003024;28;20085;-88
2021/09/06 04:05:10;;;;;;;8.48;7.03;;;18.50;99.90;;;;;;4998272;28;20088;-88
2021/09/06 04:07:36;;;;;;;8.23;7.43;;;18.50;99.90;;;;;;4994264;28;20038;-87
2021/09/06 04:10:02;;;;;;;7.72;7.03;;;18.50;99.90;;;;;;4998546;28;20550;-88
2021/09/06 04:12:28;;;;;;;9.30;7.80;;;18.50;99.90;;;;;;4998016;28;20498;-87
2021/09/06 04:14:53;;;;;;;10.63;7.65;;;18.50;99.90;;;;;;4998463;28;20030;-87
2021/09/06 04:17:19;;;;;;;7.95;7.18;;;18.40;99.90;;;;;;4997988;28;20080;-88
2021/09/06 04:19:45;;;;;;;8.77;7.43;;;18.40;99.90;;;;;;4977602;28;20027;-87
2021/09/06 04:22:10;;;;;;;8.13;7.32;;;18.30;99.90;;;;;;4996794;28;20034;-88
2021/09/06 04:24:36;;;;;;;8.10;7.30;;;18.30;99.90;;;;;;4981290;28;20438;-88
2021/09/06 04:27:02;;;;;;;8.20;7.20;;;18.30;99.90;;;;;;4998002;28;20490;-87
2021/09/06 04:29:27;;;;;;;7.97;7.28;;;18.30;99.90;;;;;;4980300;28;20480;-87
2021/09/06 04:31:54;;;;;;;8.90;7.65;;;18.30;99.90;;;;;;4978785;28;20146;-88
2021/09/06 04:34:19;;;;;;;8.20;7.40;;;18.30;99.90;;;;;;4977733;28;20188;-88
2021/09/06 04:36:45;;;;;;;8.02;7.22;;;18.30;99.90;;;;;;4980980;28;20110;-87
2021/09/06 04:39:11;;;;;;;8.30;7.50;;;18.30;99.90;;;;;;4997650;28;20030;-88
2021/09/06 04:41:37;;;;;;;7.90;6.97;;;18.30;99.90;;;;;;4980070;28;20419;-87
2021/09/06 04:44:02;;;;;;;9.88;7.53;;;18.30;99.90;;;;;;4997145;28;20551;-88
2021/09/06 04:46:28;;;;;;;8.55;7.47;;;18.30;99.90;;;;;;4976374;28;20034;-87
2021/09/06 04:48:54;;;;;;;7.63;6.90;;;18.50;99.90;;;;;;4980808;28;20030;-88
2021/09/06 04:51:19;;;;;;;9.18;7.30;;;18.50;99.90;;;;;;4997418;28;20431;-88
2021/09/06 04:53:48;;;;;;;7.57;6.88;;;18.50;99.90;;;;;;4997779;28;20057;-88
2021/09/06 04:56:14;;;;;;;8.05;7.10;;;18.30;99.90;;;;;;4997121;28;20041;-87
2021/09/06 04:58:40;;;;;;;8.43;7.32;;;18.40;99.90;;;;;;4993767;28;20034;-88
2021/09/06 05:01:06;;;;;;;8.73;6.60;;;18.30;99.90;;;;;;4997223;28;20054;-86
2021/09/06 05:03:32;;;;;;;8.57;7.30;;;18.30;99.90;;;;;;4996673;28;20505;-87
2021/09/06 05:05:59;;;;;;;7.97;7.07;;;18.30;99.90;;;;;;4996960;28;20046;-87
2021/09/06 05:08:26;;;;;;;8.18;7.38;;;18.30;99.90;;;;;;4980092;28;20398;-88
2021/09/06 05:10:52;;;;;;;7.43;6.78;;;18.30;99.90;;;;;;4995239;28;20030;-87
2021/09/06 05:13:17;;;;;;;18.52;8.18;;;18.20;99.90;;;;;;4994691;28;20092;-88
2021/09/06 05:15:43;;;;;;;8.48;7.13;;;18.20;99.90;;;;;;4997923;28;20027;-88
2021/09/06 05:18:10;;;;;;;10.82;7.35;;;18.20;99.90;;;;;;4996456;28;20462;-87
2021/09/06 05:20:36;;;;;;;8.95;7.18;;;18.10;99.90;;;;;;4979141;28;20038;-88
2021/09/06 05:23:02;;;;;;;8.63;7.68;;;18.20;99.90;;;;;;4979289;28;20084;-88
2021/09/06 05:25:28;;;;;;;8.25;7.30;;;18.30;99.90;;;;;;4993147;28;20042;-88
2021/09/06 05:27:54;;;;;;;9.13;7.03;;;18.30;99.90;;;;;;4997358;28;20084;-87
2021/09/06 05:30:20;;;;;;;7.65;6.90;;;18.30;99.90;;;;;;4996888;28;20022;-87
2021/09/06 05:32:45;;;;;;;8.30;7.50;;;18.30;99.90;;;;;;4996471;28;20042;-88
2021/09/06 05:35:11;;;;;;;12.02;7.32;;;18.30;99.90;;;;;;4996554;28;20034;-88
2021/09/06 05:37:37;;;;;;;7.97;7.18;;;18.30;99.90;;;;;;4975933;28;20170;-87
2021/09/06 05:40:04;;;;;;;8.63;7.78;;;18.30;99.90;;;;;;4996807;28;20153;-87
2021/09/06 05:42:29;;;;;;;10.18;7.18;;;18.40;99.90;;;;;;4996805;28;20039;-88
2021/09/06 05:44:55;;;;;;;8.68;7.80;;;18.40;99.90;;;;;;4996148;28;20050;-88
2021/09/06 05:47:21;;;;;;;8.43;7.70;;;18.40;99.90;;;;;;4996573;28;20486;-88
2021/09/06 05:49:46;;;;;;;8.98;7.05;;;18.40;99.90;;;;;;4976292;28;20053;-87
2021/09/06 05:52:12;;;;;;;9.05;7.55;;;18.50;99.90;;;;;;4995121;28;20026;-88
2021/09/06 05:54:38;;;;;;;8.35;7.65;;;18.60;99.90;;;;;;4979505;28;20073;-87
2021/09/06 05:57:04;;;;;;;8.93;7.93;;;18.60;99.90;;;;;;4996340;28;20039;-88
2021/09/06 05:59:30;;;;;;;9.68;8.55;;;18.50;99.90;;;;;;4997096;28;20033;-88
2021/09/06 06:01:56;;;;;;;13.32;8.75;;;18.60;99.90;;;;;;4994592;28;20084;-87
2021/09/06 06:04:21;;;;;;;8.45;7.57;;;18.60;99.90;;;;;;4976175;28;20031;-87
2021/09/06 06:06:47;;;;;;;8.60;7.38;;;18.70;99.90;;;;;;4996673;28;20061;-87
2021/09/06 06:09:13;;;;;;;8.68;7.78;;;18.60;99.90;;;;;;4979108;28;20057;-87
2021/09/06 06:11:40;;;;;;;8.82;7.43;;;18.70;99.90;;;;;;4978886;28;20483;-87
2021/09/06 06:14:06;;;;;;;9.43;7.80;;;18.70;99.90;;;;;;4995920;28;20026;-87
2021/09/06 06:16:32;;;;;;;9.15;8.00;;;18.80;99.90;;;;;;4975828;28;20471;-88
2021/09/06 06:18:58;;;;;;;8.90;8.00;;;18.80;99.90;;;;;;4997348;28;20026;-87
2021/09/06 06:21:23;;;;;;;11.52;8.02;;;18.90;99.90;;;;;;4978725;28;20475;-87
2021/09/06 06:23:49;;;;;;;10.50;8.95;;;19.00;99.90;;;;;;4978514;28;20392;-88
2021/09/06 06:26:15;;;;;;;11.25;10.00;;;19.00;99.90;;;;;;4980406;28;20508;-87
2021/09/06 06:28:41;;;;;;;11.20;9.95;;;19.00;99.90;;;;;;4996479;28;20041;-88
2021/09/06 06:31:07;;;;;;;11.75;10.60;;;19.10;99.90;;;;;;4981668;28;20026;-88
2021/09/06 06:33:33;;;;;;;12.93;10.15;;;19.10;99.90;;;;;;5000892;28;20042;-87
2021/09/06 06:36:00;;;;;;;13.00;10.63;;;19.30;99.90;;;;;;4981953;28;20034;-88
2021/09/06 06:38:30;;;;;;;15.32;13.20;;;19.30;99.90;;;;;;5000054;28;20033;-87
2021/09/06 06:40:56;;;;;;;18.38;14.05;;;19.30;99.90;;;;;;4998800;28;20033;-88
2021/09/06 06:43:22;;;;;;;17.98;14.27;;;19.40;99.90;;;;;;4979935;28;20426;-88
2021/09/06 06:45:48;;;;;;;17.00;13.15;;;19.60;99.90;;;;;;4999671;28;20047;-87
2021/09/06 06:48:13;;;;;;;13.63;10.50;;;19.60;99.90;;;;;;4999753;28;20029;-88
2021/09/06 06:50:39;;;;;;;11.63;10.43;;;19.60;99.90;;;;;;4999812;28;20046;-88
2021/09/06 06:53:05;;;;;;;13.20;10.80;;;19.60;99.90;;;;;;4995809;28;20026;-87
2021/09/06 06:55:30;;;;;;;9.95;8.95;;;19.80;99.90;;;;;;5011208;28;22309;-87
2021/09/06 06:57:56;;;;;;;9.13;8.20;;;19.90;99.90;;;;;;5000132;28;20054;-87
2021/09/06 07:00:22;;;;;;;10.35;9.05;;;20.00;99.90;;;;;;4999567;28;20030;-88
2021/09/06 07:02:48;;;;;;;10.15;8.90;;;20.10;99.90;;;;;;4999851;28;20033;-88
2021/09/06 07:05:13;;;;;;;8.45;7.32;;;20.10;99.90;;;;;;4982799;28;20034;-87
2021/09/06 07:07:39;;;;;;;10.60;7.50;;;20.20;99.90;;;;;;5010675;28;20038;-88
2021/09/06 07:10:09;;;;;;;7.75;6.95;;;20.20;99.90;;;;;;4999679;28;20081;-87
2021/09/06 07:12:34;;;;;;;9.93;7.10;;;20.30;99.90;;;;;;4999437;28;20030;-87
2021/09/06 07:15:00;;;;;;;8.07;7.22;;;20.40;99.90;;;;;;4998971;28;20089;-87
2021/09/06 07:17:26;;;;;;;8.32;7.47;;;20.50;99.90;;;;;;4999118;28;20041;-87
2021/09/06 07:19:51;;;;;;;10.63;8.48;;;20.50;99.90;;;;;;4979540;28;20030;-87
2021/09/06 07:22:17;;;;;;;11.02;8.55;;;20.50;99.90;;;;;;4997500;28;20034;-87
2021/09/06 07:24:43;;;;;;;10.43;8.25;;;20.50;99.90;;;;;;4999266;28;20376;-87
2021/09/06 07:27:09;;;;;;;10.57;8.70;;;20.60;99.90;;;;;;4998643;28;20026;-88
2021/09/06 07:29:34;;;;;;;20.08;9.40;;;20.60;99.90;;;;;;5002834;28;20098;-87
2021/09/06 07:32:00;;;;;;;17.27;9.27;;;20.70;99.90;;;;;;4992317;28;20502;-87
2021/09/06 07:34:26;;;;;;;15.07;8.85;;;20.80;99.90;;;;;;4995326;28;20522;-88
2021/09/06 07:36:52;;;;;;;11.68;9.20;;;20.90;99.90;;;;;;4999585;28;20050;-88
2021/09/06 07:39:18;;;;;;;11.38;8.50;;;20.80;99.90;;;;;;4998668;28;20506;-87
2021/09/06 07:41:45;;;;;;;12.52;9.00;;;21.10;99.90;;;;;;4998770;28;20518;-87
2021/09/06 07:44:11;;;;;;;11.35;9.38;;;21.20;99.90;;;;;;4998452;28;20060;-87
2021/09/06 07:46:37;;;;;;;11.82;10.63;;;21.20;99.90;;;;;;4994361;28;20612;-87
2021/09/06 07:49:03;;;;;;;12.15;9.52;;;21.20;99.90;;;;;;4998879;28;20113;-87
2021/09/06 07:51:29;;;;;;;11.27;10.18;;;21.30;99.90;;;;;;5010050;28;20483;-88
2021/09/06 07:53:54;;;;;;;12.65;9.85;;;21.40;99.90;;;;;;5003525;28;20031;-87
2021/09/06 07:56:20;;;;;;;11.57;10.48;;;21.50;99.90;;;;;;4998494;28;20034;-88
2021/09/06 07:58:46;;;;;;;11.93;10.82;;;21.40;99.90;;;;;;4995774;28;20023;-88
2021/09/06 08:01:11;;;;;;;12.52;10.18;;;21.50;99.90;;;;;;4997519;28;20411;-89
2021/09/06 08:03:37;;;;;;;13.13;10.05;;;21.50;99.90;;;;;;4998768;28;20020;-88
2021/09/06 08:06:03;;;;;;;11.85;10.52;;;21.50;99.90;;;;;;4980717;28;20415;-88
2021/09/06 08:08:28;;;;;;;13.98;10.23;;;21.60;99.90;;;;;;4999092;28;20114;-88
2021/09/06 08:10:54;;;;;;;12.88;10.85;;;21.70;99.90;;;;;;4996417;28;20120;-88
2021/09/06 08:13:20;;;;;;;15.75;12.45;;;21.80;99.90;;;;;;4995843;28;20030;-89
2021/09/06 08:15:45;;;;;;;17.63;12.50;;;21.80;99.90;;;;;;4998752;28;20037;-88
2021/09/06 08:18:11;;;;;;;16.35;14.63;;;21.90;99.90;;;;;;4998799;28;20077;-88
2021/09/06 08:20:38;;;;;;;14.27;12.75;;;22.10;99.90;;;;;;4997951;28;20038;-88
2021/09/06 08:23:04;;;;;;;13.52;11.65;;;22.00;99.90;;;;;;4997635;28;20054;-88
2021/09/06 08:25:30;;;;;;;14.18;12.68;;;22.20;99.90;;;;;;4994554;28;20407;-88
2021/09/06 08:27:56;;;;;;;13.65;12.07;;;22.40;99.90;;;;;;4998474;28;20019;-88
2021/09/06 08:30:22;;;;;;;15.23;13.60;;;22.40;99.90;;;;;;4998436;28;20046;-88
2021/09/06 08:32:48;;;;;;;14.43;12.88;;;22.40;99.90;;;;;;4997526;28;20522;-88
2021/09/06 08:35:14;;;;;;;12.65;11.18;;;22.50;99.90;;;;;;4981539;28;20022;-88
2021/09/06 08:37:40;;;;;;;11.32;10.15;;;22.60;99.90;;;;;;4992061;28;20038;-88
2021/09/06 08:40:08;;;;;;;13.38;10.23;;;22.70;99.90;;;;;;4980018;28;20034;-89
2021/09/06 08:42:35;;;;;;;12.60;10.88;;;22.70;99.90;;;;;;4980366;28;20395;-88
2021/09/06 08:45:01;;;;;;;12.25;11.00;;;22.70;99.90;;;;;;4976775;28;20463;-88
2021/09/06 08:47:27;;;;;;;11.18;9.60;;;22.70;99.90;;;;;;4978280;28;20074;-88
2021/09/06 08:49:52;;;;;;;9.98;9.00;;;22.70;99.90;;;;;;4975914;28;20480;-89
2021/09/06 08:52:18;;;;;;;12.43;10.30;;;22.90;99.90;;;;;;4974735;28;20055;-89
2021/09/06 08:54:44;;;;;;;9.88;8.98;;;22.90;99.90;;;;;;4978544;28;20027;-88
2021/09/06 08:57:09;;;;;;;11.75;10.65;;;23.00;99.90;;;;;;4977134;28;20037;-88
2021/09/06 08:59:39;;;;;;;11.35;10.23;;;22.90;99.90;;;;;;4978157;28;20027;-88
2021/09/06 09:02:05;;;;;;;12.65;9.65;;;22.90;99.90;;;;;;4976432;28;20083;-88
2021/09/06 09:04:30;;;;;;;11.77;10.57;;;23.30;99.90;;;;;;4973373;28;20062;-89
2021/09/06 09:06:58;;;;;;;15.57;10.23;;;23.30;99.90;;;;;;4978680;28;20456;-89
2021/09/06 09:09:33;;;;;;;12.23;10.93;;;23.40;99.90;;;;;;4977409;28;20117;-89
2021/09/06 09:12:09;;;;;;;12.32;9.95;;;23.30;99.90;;;;;;4978425;28;20042;-89
2021/09/06 09:14:37;;;;;;;14.00;9.45;;;23.50;99.90;;;;;;4978165;28;20487;-88
2021/09/06 09:17:03;;;;;;;10.38;9.38;;;23.80;99.90;;;;;;4977218;28;20454;-89
2021/09/06 09:19:29;;;;;;;10.93;9.75;;;23.80;99.90;;;;;;4973883;28;20046;-90
2021/09/06 09:21:58;;;;;;;9.68;8.77;;;24.10;99.90;;;;;;4978352;28;20026;-89
2021/09/06 09:24:25;;;;;;;10.80;8.25;;;24.10;99.90;;;;;;4977485;28;20041;-88
2021/09/06 09:26:59;;;;;;;11.93;8.13;;;24.20;99.90;;;;;;4978103;28;20039;-88
2021/09/06 09:29:26;;;;;;;10.02;8.68;;;24.40;99.90;;;;;;4977773;28;20023;-89
2021/09/06 09:31:53;;;;;;;10.10;8.52;;;24.40;99.90;;;;;;4975473;28;20026;-89
2021/09/06 09:34:20;;;;;;;8.48;7.55;;;24.30;99.90;;;;;;4975471;28;20395;-88
2021/09/06 09:36:46;;;;;;;7.63;6.90;;;24.60;99.90;;;;;;4976034;28;20034;-89
2021/09/06 09:39:20;;;;;;;9.48;7.50;;;25.00;99.90;;;;;;4977096;28;20093;-89
2021/09/06 09:41:48;;;;;;;8.15;6.85;;;25.40;99.90;;;;;;4977586;28;20035;-89
2021/09/06 09:44:20;;;;;;;8.70;7.80;;;25.90;99.90;;;;;;4975752;28;20046;-89
2021/09/06 09:46:59;;;;;;;7.70;6.90;;;28.10;99.90;;;;;;4974445;28;20045;-89
2021/09/06 09:49:26;;;;;;;9.52;6.40;;;32.50;99.90;;;;;;4974992;28;20117;-89
2021/09/06 09:51:52;;;;;;;7.40;6.70;;;36.60;99.20;;;;;;4978279;28;20023;-91
2021/09/06 09:54:18;;;;;;;8.52;7.43;;;38.90;90.60;;;;;;4976099;28;20026;-90
2021/09/06 09:56:45;;;;;;;9.10;7.20;;;40.50;85.40;;;;;;4977430;28;20030;-91
2021/09/06 09:59:13;;;;;;;10.63;7.07;;;40.30;81.30;;;;;;4977714;28;20077;-91
2021/09/06 10:01:48;;;;;;;7.75;6.70;;;41.30;77.40;;;;;;4973791;28;20062;-91
2021/09/06 10:04:19;;;;;;;7.45;6.75;;;42.70;73.10;;;;;;4976404;28;20505;-91
2021/09/06 10:06:46;;;;;;;6.70;6.10;;;43.00;66.00;;;;;;4977850;28;20031;-91
2021/09/06 10:09:14;;;;;;;6.65;6.05;;;43.30;59.40;;;;;;4976993;28;20161;-91
2021/09/06 10:11:43;;;;;;;6.85;6.25;;;42.20;58.20;;;;;;4977849;28;20484;-91
2021/09/06 10:14:22;;;;;;;8.13;7.00;;;42.40;61.20;;;;;;4977221;28;20027;-91
2021/09/06 10:17:08;;;;;;;7.22;6.53;;;43.60;56.30;;;;;;4973806;28;20027;-91
2021/09/06 10:19:39;;;;;;;7.10;6.40;;;43.60;68.00;;;;;;4957876;28;20035;-91
2021/09/06 10:22:04;;;;;;;7.57;6.32;;;44.00;52.60;;;;;;4985631;28;20413;-92
2021/09/06 10:24:30;;;;;;;7.80;6.30;;;44.70;45.20;;;;;;4976186;28;20031;-92
2021/09/06 10:27:04;;;;;;;7.93;6.20;;;44.20;47.70;;;;;;4976628;28;20045;-92
2021/09/06 10:29:30;;;;;;;6.75;6.10;;;44.00;50.30;;;;;;4980304;28;20030;-92
2021/09/06 10:32:04;;;;;;;6.57;5.97;;;44.40;45.40;;;;;;4988422;28;20038;-92
2021/09/06 10:34:30;;;;;;;6.50;5.80;;;44.80;45.40;;;;;;4973666;28;20538;-91
2021/09/06 10:37:05;;;;;;;6.57;5.90;;;44.90;44.80;;;;;;4976200;28;20031;-92
2021/09/06 10:39:46;;;;;;;6.57;5.72;;;45.80;45.00;;;;;;4977352;28;20092;-91
2021/09/06 10:42:11;;;;;;;6.30;5.70;;;46.00;40.50;;;;;;4976144;28;20026;-91
2021/09/06 10:44:38;;;;;;;6.28;5.70;;;45.60;37.00;;;;;;4993076;28;20097;-92
2021/09/06 10:47:08;;;;;;;9.32;6.03;;;45.40;38.70;;;;;;4996027;28;20034;-92
2021/09/06 10:49:37;;;;;;;7.35;6.13;;;44.40;42.70;;;;;;4977167;28;20052;-91
2021/09/06 10:52:03;;;;;;;5.72;5.22;;;44.70;40.20;;;;;;5003633;28;20026;-92
2021/09/06 10:54:29;;;;;;;7.00;5.63;;;45.60;33.30;;;;;;4997070;28;20057;-92
2021/09/06 10:56:54;;;;;;;6.55;5.40;;;45.00;34.80;;;;;;4996262;28;20101;-91
2021/09/06 10:59:25;;;;;;;6.20;5.63;;;44.70;36.60;;;;;;4978737;28;20025;-91
2021/09/06 11:01:52;;;;;;;6.45;5.82;;;45.20;38.20;;;;;;4993834;28;20030;-91
2021/09/06 11:04:20;;;;;;;7.90;5.68;;;45.20;38.00;;;;;;4994939;28;20098;-91
2021/09/06 11:06:46;;;;;;;6.22;5.40;;;45.20;36.30;;;;;;4994437;28;20069;-91
2021/09/06 11:09:11;;;;;;;5.78;5.22;;;45.00;33.30;;;;;;4996506;28;20332;-92
2021/09/06 11:11:37;;;;;;;8.77;5.25;;;45.70;31.50;;;;;;4996739;28;20046;-91
2021/09/06 11:14:02;;;;;;;5.60;5.10;;;46.60;29.30;;;;;;4999040;28;20056;-91
2021/09/06 11:16:39;;;;;;;5.53;4.68;;;46.40;27.90;;;;;;4978696;28;20038;-91
2021/09/06 11:19:15;;;;;;;5.40;4.55;;;47.80;26.70;;;;;;5008419;28;20018;-91
2021/09/06 11:21:41;;;;;;;5.10;4.60;;;48.10;28.00;;;;;;4981653;28;20034;-92
2021/09/06 11:24:07;;;;;;;4.90;4.50;;;48.80;25.60;;;;;;4982754;28;20078;-92
2021/09/06 11:26:33;;;;;;;6.63;4.68;;;48.50;22.90;;;;;;4981783;28;20034;-92
2021/09/06 11:28:59;;;;;;;4.78;4.38;;;48.40;22.60;;;;;;4998223;28;20080;-92
2021/09/06 11:31:27;;;;;;;4.72;4.25;;;48.40;22.10;;;;;;4996361;28;20473;-92
2021/09/06 11:34:04;;;;;;;4.60;4.20;;;48.50;24.00;;;;;;5014897;28;20022;-93
2021/09/06 11:36:30;;;;;;;4.95;4.55;;;48.80;21.90;;;;;;4999491;28;20490;-92
2021/09/06 11:38:57;;;;;;;4.90;4.43;;;49.00;20.60;;;;;;4999446;28;20033;-92
2021/09/06 11:41:23;;;;;;;4.60;3.90;;;48.70;19.60;;;;;;4981956;28;20060;-92
2021/09/06 11:43:50;;;;;;;4.50;4.10;;;48.80;20.60;;;;;;4979822;28;20042;-93
2021/09/06 11:46:16;;;;;;;4.95;4.40;;;49.80;28.50;;;;;;4980326;28;20046;-93
2021/09/06 11:48:48;;;;;;;4.80;4.40;;;50.00;18.40;;;;;;5000029;28;20081;-92
2021/09/06 11:51:15;;;;;;;4.50;4.10;;;49.20;20.60;;;;;;4981592;28;20042;-92
2021/09/06 11:53:41;;;;;;;4.70;4.00;;;50.10;18.20;;;;;;4999735;28;20030;-92
2021/09/06 11:56:14;;;;;;;4.30;3.90;;;49.80;16.90;;;;;;4999464;28;20498;-93
2021/09/06 11:58:45;;;;;;;4.78;4.28;;;50.20;15.80;;;;;;4980423;28;20037;-93
2021/09/06 12:01:14;;;;;;;4.40;4.00;;;49.60;20.30;;;;;;4998207;28;20061;-92
2021/09/06 12:03:40;;;;;;;6.57;4.30;;;48.00;30.90;;;;;;4981895;28;20391;-92
2021/09/06 12:06:08;;;;;;;4.65;4.25;;;48.60;20.40;;;;;;4998700;28;20405;-92
2021/09/06 12:08:34;;;;;;;4.45;3.95;;;49.30;18.70;;;;;;4981642;28;20430;-92
2021/09/06 12:11:12;;;;;;;5.25;4.55;;;50.20;14.90;;;;;;4998002;28;20022;-93
2021/09/06 12:13:39;;;;;;;4.82;4.30;;;49.60;14.80;;;;;;4979273;28;20095;-93
2021/09/06 12:16:10;;;;;;;5.10;3.90;;;48.40;20.40;;;;;;4999413;28;20037;-93
2021/09/06 12:18:44;;;;;;;5.35;4.20;;;49.20;18.10;;;;;;4990484;28;20053;-93
2021/09/06 12:21:19;;;;;;;4.50;4.10;;;49.30;17.30;;;;;;4980951;28;20034;-93
2021/09/06 12:23:49;;;;;;;4.20;3.80;;;49.90;17.70;;;;;;4993881;28;20030;-93
2021/09/06 12:26:15;;;;;;;4.75;4.00;;;49.40;18.10;;;;;;4999097;28;20130;-93
2021/09/06 12:28:49;;;;;;;4.63;4.10;;;49.60;16.30;;;;;;4994953;28;20069;-93
2021/09/06 12:31:15;;;;;;;4.60;4.20;;;49.30;17.50;;;;;;4997393;28;20026;-93
2021/09/06 12:33:41;;;;;;;4.38;3.90;;;48.80;18.10;;;;;;5006977;28;20061;-93
2021/09/06 12:36:07;;;;;;;4.22;3.88;;;49.00;16.00;;;;;;5009681;28;20053;-92
2021/09/06 12:38:33;;;;;;;5.15;4.07;;;48.70;20.30;;;;;;4988433;28;20069;-93
2021/09/06 12:40:59;;;;;;;4.00;3.70;;;49.60;22.30;;;;;;4994488;28;20036;-93